Ride Results

Lake Manchester 80 km (24-06-2012)
Ride distance: 80.0 km

Outcomes - Lake Manchester 80 km (24-06-2012)
Division No. of Entries Retired / DNE Completed Withdrawn Ineligible V/O Percentage Completed
HW 6 - 5 - - 1 83.33%
MW 29 - 21 4 2 2 72.41%
LW 13 - 9 1 - 3 69.23%
JN 16 - 14 - - 2 87.50%
Totals 64 - 49 5 2 8 76.56%
Results - Lake Manchester 80 km (24-06-2012)
No. Rider Horse Place Time Leg Speeds Total
Km/Hr
H/R bpm
Heavyweight
5 Sean Field Jaffa 1 6:21:00 16.1, 10.0 12.60 38, 43, 55 (Avg:49)
46 Niels Lochtenberg Matta Mia Sadik 2 (BC) 6:40:00 12.2, 11.7 12.00 40, 44, 50 (Avg:47)
37 Nick Riley White Knight 3 7:46:00 12.1, 8.7 10.30 36, 45, 51 (Avg:48)
35 Greg Garred Shannonwood Ezar 4 7:47:00 11.7, 8.9 10.28 47, 41, 47 (Avg:44)
36 Craig Bond Bonds Addiction 5 8:07:00 11.1, 8.7 9.86 33, 47, 49 (Avg:48)
15 Len Law Lenannlaw Alarbi Lame L2 0:00:00 9.9, 6.4 - 64, 55, 57 (Avg:56)
Middleweight
38 Natasha Willemse Jazz Rah Tamin 1 (BC) 6:05:00 15.6, 11.0 13.15 32, 43, 47 (Avg:45)
42 Caroline Fitzgerald Lanamere Femmara 2 7:25:00 12.2, 9.4 10.79 48, 42, 50 (Avg:46)
43 Rachel Goodwin Lanamere De Javu 2 7:25:00 12.2, 9.4 10.79 30, 52, 55 (Avg:53)
6 Jeni Martin Jen Mar Ma Aj Mala 2 7:25:00 12.2, 9.4 10.79 35, 45, 46 (Avg:45)
4 Christal Rizk Dunbar Aramis 5 7:36:00 12.1, 9.1 10.53 38, 43, 47 (Avg:45)
41 Jackie Gilks Reid River Reflectshine 6 7:39:00 12.1, 8.9 10.46 37, 45, 46 (Avg:45)
22 Sarah Love Fun 4 Us 6 7:39:00 11.2, 9.6 10.46 33, 40, 42 (Avg:41)
26 Peter Pike Aloha Sashar 8 7:46:00 11.6, 9.0 10.30 36, 47, 48 (Avg:47)
50 Anne Barlow Sa-har Shetari 9 7:47:00 11.5, 9.0 10.28 35, 50, 55 (Avg:52)
67 Olga Bartlett Cingala Royalle 10 7:56:00 11.1, 9.0 10.08 35, 49, 51 (Avg:50)
31 Akhmed Pshunov Ceona Citation 11 8:08:00 10.6, 9.0 9.84 31, 50, 59 (Avg:54)
23 Sue Clark Diamond Dew Argyle 12 8:10:00 11.7, 8.2 9.80 37, 46, 60 (Avg:53)
13 Angela Georgopoulos Elfar Amigo 13 8:21:00 11.0, 8.3 9.58 34, 44, 55 (Avg:49)
54 Danielle Cullen Mt Eerwah Silver Arafina 14 8:24:00 10.8, 8.3 9.52 25, 32, 41 (Avg:36)
55 Robyn Pembroke Mt Eerwah Nikita 14 8:24:00 10.8, 8.3 9.52 27, 45, 47 (Avg:46)
1 Debra McQueen Veronica te 16 8:36:00 10.0, 8.5 9.30 34, 36, 44 (Avg:40)
2 Bridget Nottle XL te 16 8:36:00 10.0, 8.5 9.30 49, 43, 49 (Avg:46)
18 Stephanie Malmborg Dunbar Coco Chanel 18 8:56:00 10.4, 7.6 8.96 30, 37, 41 (Avg:39)
66 David Cleland Countess Crysda 19 9:19:00 10.3, 7.1 8.59 33, 44, 47 (Avg:45)
9 Jillian Crowley Lilla 19 9:19:00 10.4, 7.1 8.59 32, 47, 45 (Avg:46)
14 Troy Roosen Moondarra Samuri 21 10:00:00 9.9, 6.4 8.00 35, 46, 50 (Avg:48)
59 Garry Beard Hillbrae Bimbo Lame L2 0:00:00 10.9, 8.7 - 37, 45, 60 (Avg:52)
3 Wayne McKinnon Dunbar Lexus Disqualified L2 0:00:00 15.6, 18.4 - 33, 39, 38 (Avg:38)
61 Ken Moir Cameo Helmzman Lame L2 0:00:00 10.3, 73.9 - 36, 41, 44 (Avg:42)
51 Vanessa Tiffen Miva Majnoun Disqualified L2 0:00:00 10.4, 9.1 - 33, 43, 48 (Avg:45)
53 Sean Crew Mt Eerwah Romonous Withdrawn L1 0:00:00 - - 70, 49 (Avg:49)
29 Lee Cutler Hillbrae Alec Withdrawn L1 0:00:00 - - 35, 49 (Avg:49)
33 Matt Sample Manana Gaylord Withdrawn L1 0:00:00 - - 32, 42 (Avg:42)
19 Sabrina Stephens Moondarra Diannah Withdrawn L1 0:00:00 - - 45, 49 (Avg:49)
Lightweight
39 Jess Capek Raazoor Dajani 1 (BC) 6:31:00 15.6, 9.8 12.28 23, 31, 47 (Avg:39)
28 Judy Battams Sommariva Malik 2 7:06:00 12.2, 10.3 11.27 39, 40, 44 (Avg:42)
32 Kaylea Maher Clovelly Park Tazeem 3 7:35:00 10.6, 10.4 10.55 48, 39, 44 (Avg:41)
40 Leigh Rich Leondon Maritz 4 7:39:00 12.1, 8.9 10.46 36, 41, 45 (Avg:43)
7 Margaret Harvey Banbra Shadow 5 8:06:00 10.3, 9.4 9.88 31, 40, 51 (Avg:45)
11 Robyn Brazel Thomas 6 8:16:00 10.9, 8.5 9.68 35, 46, 48 (Avg:47)
12 Amanda Powell Summit Park Raz 7 8:17:00 10.9, 8.5 9.66 31, 38, 44 (Avg:41)
57 Celeste Shields Mt Eerwah Bay Cavalier 8 8:24:00 10.8, 8.3 9.52 31, 40, 43 (Avg:41)
45 Di Kupsch Fortaleza Ascira 9 8:46:00 10.9, 7.6 9.13 33, 48, 55 (Avg:51)
47 Bobbi Lochtenberg Matta Mia Arad Lame L2 0:00:00 16.9, 13.3 - 34, 45, 48 (Avg:46)
65 Amanda Phillips Without A Doubt Lame L2 0:00:00 13.6, 9.3 - 38, 46, 53 (Avg:49)
52 Ute Jordan Golden Thunder Withdrawn L1 0:00:00 - - 34, 42 (Avg:42)
44 Carolyn Kent Gold Nugget Heart Rate L1 0:00:00 10.8 - 39, 57 (Avg:57)
Junior
64 Hannah Terry Cherox Kariim 1 (BC) 5:20:00 15.6, 14.3 15.00 33, 43, 46 (Avg:44)
48 Lainie Zischke Atticus 1 5:20:00 15.2, 14.7 15.00 39, 43, 48 (Avg:45)
63 Jessyca Dakin Dodge 3 5:49:00 15.7, 11.9 13.75 29, 43, 52 (Avg:47)
69 Jade Vergis Emac 4 7:49:00 10.3, 10.1 10.23 34, 43, 40 (Avg:41)
60 James Coop Hazeldean Estina 5 8:09:00 10.3, 9.2 9.82 38, 45, 50 (Avg:47)
49 Samantha Brooker Hirstglen Zeus 6 8:10:00 10.4, 9.1 9.80 35, 36, 42 (Avg:39)
8 Isabella Teh Piccolo Burasca 6 8:10:00 10.4, 9.0 9.80 37, 43, 44 (Avg:43)
56 Ellie Kreicbergs Agape SamuElla Australis 8 8:24:00 10.8, 8.3 9.52 36, 35, 44 (Avg:39)
58 Stirling Shields Indy 8 8:24:00 10.8, 8.3 9.52 33, 40, 45 (Avg:42)
10 Susannah Cleland Luciana 10 8:50:00 10.3, 7.9 9.06 36, 42, 47 (Avg:44)
62 Amber Weale Cirrus 11 8:56:00 8.4, 9.6 8.96 40, 38, 43 (Avg:40)
27 Gemma Dickenson Jezabelle Oceans Of Fire 12 8:58:00 9.8, 8.0 8.92 36, 43, 48 (Avg:45)
20 Tayla Hadzi Haaris 12 8:58:00 9.8, 8.0 8.92 33, 42, 48 (Avg:45)
30 Kenzie Roberton Sadaf Wa Azeem 14 9:28:00 9.8, 7.2 8.45 36, 43, 50 (Avg:46)
21 David Anderson Jnr Ashwind Lame L2 0:00:00 11.2, 9.6 - 33, 41, 51 (Avg:46)
24 Matilda Hose Halo Kazaam Heart Rate L2 0:00:00 11.7, 9.8 - 36, 40, 65 (Avg:52)